Time;durP1;ratioP1;P1;durP2;ratioP2;P2;SDS_P1;SDS_P2;PMS_P1;PMS_P2;Temp;Humidity;BMP_temperature;BMP_pressure;BME280_temperature;BME280_humidity;BME280_pressure;Samples;Min_cycle;Max_cycle;Signal;HPM_P1;HPM_P2
2022/07/13 00:02:16;;;;;;;;;;;22.70;53.60;;;;;;5065228;28;19924;-68
2022/07/13 00:04:43;;;;;;;;;;;22.70;53.70;;;;;;5067542;28;19925;-68
2022/07/13 00:07:10;;;;;;;;;;;22.70;53.60;;;;;;5057849;28;20002;-67
2022/07/13 00:09:38;;;;;;;;;;;22.70;53.60;;;;;;5066714;28;19962;-68
2022/07/13 00:14:49;;;;;;;;;;;22.70;53.60;;;;;;5056028;28;19920;-67
2022/07/13 00:17:16;;;;;;;;;;;22.70;53.60;;;;;;5061229;28;19974;-67
2022/07/13 00:19:43;;;;;;;;;;;22.70;53.60;;;;;;5066288;28;19920;-68
2022/07/13 00:22:09;;;;;;;;;;;22.60;53.50;;;;;;5043146;28;19921;-68
2022/07/13 00:24:37;;;;;;;;;;;22.70;53.60;;;;;;5069535;28;19965;-67
2022/07/13 00:27:04;;;;;;;;;;;22.70;53.60;;;;;;5035696;28;19968;-68
2022/07/13 00:29:31;;;;;;;;;;;22.70;53.60;;;;;;5038048;28;19924;-70
2022/07/13 00:31:58;;;;;;;;;;;22.60;53.50;;;;;;5063483;28;20374;-67
2022/07/13 00:34:24;;;;;;;;;;;22.70;53.60;;;;;;5054205;28;19928;-68
2022/07/13 00:36:51;;;;;;;;;;;22.70;53.60;;;;;;5069201;28;19970;-68
2022/07/13 00:39:18;;;;;;;;;;;22.60;53.50;;;;;;5071815;28;20251;-67
2022/07/13 00:42:03;;;;;;;;;;;22.60;53.50;;;;;;5055573;28;19921;-67
2022/07/13 00:44:49;;;;;;;;;;;22.70;53.60;;;;;;5054772;28;19974;-67
2022/07/13 00:47:17;;;;;;;;;;;22.60;53.50;;;;;;5072279;28;20054;-68
2022/07/13 00:49:44;;;;;;;;;;;22.70;53.60;;;;;;5069564;28;20031;-67
2022/07/13 00:52:10;;;;;;;;;;;22.70;53.60;;;;;;5054389;28;19936;-67
2022/07/13 00:54:37;;;;;;;;;;;22.60;53.50;;;;;;5054737;28;19974;-67
2022/07/13 00:57:04;;;;;;;;;;;22.60;54.00;;;;;;5068884;28;19931;-68
2022/07/13 00:59:31;;;;;;;;;;;22.60;53.50;;;;;;5068931;28;20369;-67
2022/07/13 01:01:58;;;;;;;;;;;22.60;53.50;;;;;;5053170;28;19924;-67
2022/07/13 01:04:26;;;;;;;;;;;22.60;53.50;;;;;;5072854;28;19943;-67
2022/07/13 01:06:53;;;;;;;;;;;22.60;53.50;;;;;;5052168;28;19978;-69
2022/07/13 01:09:20;;;;;;;;;;;22.60;53.50;;;;;;5059688;28;20012;-67
2022/07/13 01:11:47;;;;;;;;;;;22.60;53.50;;;;;;5071936;28;19921;-67
2022/07/13 01:14:14;;;;;;;;;;;22.70;53.60;;;;;;5064262;28;19921;-67
2022/07/13 01:16:41;;;;;;;;;;;22.70;53.60;;;;;;5062644;28;19931;-68
2022/07/13 01:19:08;;;;;;;;;;;22.70;53.60;;;;;;5045588;28;20383;-68
2022/07/13 01:24:22;;;;;;;;;;;22.60;53.50;;;;;;5067740;28;19928;-68
2022/07/13 01:26:49;;;;;;;;;;;22.60;53.50;;;;;;5054097;28;19925;-68
2022/07/13 01:29:15;;;;;;;;;;;22.60;53.40;;;;;;5046225;28;19970;-67
2022/07/13 01:32:01;;;;;;;;;;;22.60;53.40;;;;;;5063192;28;20144;-67
2022/07/13 01:34:27;;;;;;;;;;;22.60;53.40;;;;;;5054193;28;20361;-67
2022/07/13 01:36:54;;;;;;;;;;;22.60;53.40;;;;;;5050232;28;20020;-67
2022/07/13 01:39:22;;;;;;;;;;;22.60;53.40;;;;;;5053900;28;19925;-68
2022/07/13 01:41:49;;;;;;;;;;;22.70;53.50;;;;;;5050350;28;19925;-68
2022/07/13 01:44:17;;;;;;;;;;;22.60;53.40;;;;;;5066337;28;20346;-68
2022/07/13 01:46:44;;;;;;;;;;;22.70;53.50;;;;;;5071801;28;19946;-68
2022/07/13 01:49:11;;;;;;;;;;;22.60;53.40;;;;;;5052954;28;20347;-67
2022/07/13 01:51:37;;;;;;;;;;;22.60;53.40;;;;;;5071459;28;20023;-68
2022/07/13 01:54:04;;;;;;;;;;;22.60;53.40;;;;;;5066685;28;19920;-69
2022/07/13 01:56:33;;;;;;;;;;;22.60;53.40;;;;;;5044412;28;20316;-68
2022/07/13 01:58:59;;;;;;;;;;;22.70;53.50;;;;;;5041415;28;20269;-67
2022/07/13 02:01:27;;;;;;;;;;;22.70;53.50;;;;;;5069185;28;19920;-68
2022/07/13 02:03:53;;;;;;;;;;;22.60;53.40;;;;;;5071718;28;19925;-67
2022/07/13 02:06:39;;;;;;;;;;;22.60;53.30;;;;;;5051658;28;19929;-68
2022/07/13 02:09:05;;;;;;;;;;;22.60;53.40;;;;;;5071010;28;20011;-68
2022/07/13 02:11:33;;;;;;;;;;;22.60;53.30;;;;;;5068449;28;19970;-67
2022/07/13 02:14:00;;;;;;;;;;;22.70;53.40;;;;;;5048365;28;19970;-68
2022/07/13 02:16:27;;;;;;;;;;;22.60;53.30;;;;;;5057451;28;19928;-68
2022/07/13 02:18:54;;;;;;;;;;;22.60;53.30;;;;;;5052324;28;20045;-67
2022/07/13 02:21:20;;;;;;;;;;;22.60;53.30;;;;;;5061819;28;19920;-67
2022/07/13 02:23:47;;;;;;;;;;;22.70;53.40;;;;;;5069820;28;19927;-67
2022/07/13 02:26:14;;;;;;;;;;;22.60;53.30;;;;;;5067822;28;20357;-67
2022/07/13 02:28:42;;;;;;;;;;;22.60;53.80;;;;;;5037131;28;19967;-67
2022/07/13 02:31:09;;;;;;;;;;;22.60;53.30;;;;;;5045026;28;19928;-67
2022/07/13 02:33:36;;;;;;;;;;;22.60;53.20;;;;;;5064887;28;20407;-68
2022/07/13 02:36:03;;;;;;;;;;;22.70;53.30;;;;;;5050210;28;19924;-66
2022/07/13 02:38:30;;;;;;;;;;;22.70;53.30;;;;;;5071434;28;20277;-68
2022/07/13 02:40:57;;;;;;;;;;;22.60;53.20;;;;;;5052306;28;19951;-69
2022/07/13 02:43:23;;;;;;;;;;;22.60;53.20;;;;;;5033069;28;19924;-68
2022/07/13 02:45:52;;;;;;;;;;;22.60;53.20;;;;;;5053439;28;19959;-67
2022/07/13 02:48:19;;;;;;;;;;;22.60;53.20;;;;;;5071832;28;19920;-67
2022/07/13 02:50:47;;;;;;;;;;;22.60;53.10;;;;;;5065649;28;20333;-68
2022/07/13 02:53:14;;;;;;;;;;;22.60;53.10;;;;;;5052196;28;19920;-68
2022/07/13 02:55:41;;;;;;;;;;;22.60;53.00;;;;;;5051899;28;19933;-68
2022/07/13 02:58:08;;;;;;;;;;;22.60;53.00;;;;;;5071805;28;19921;-69
2022/07/13 03:03:20;;;;;;;;;;;22.60;52.90;;;;;;5044328;28;19921;-67
2022/07/13 03:05:49;;;;;;;;;;;22.60;52.90;;;;;;5052977;28;19920;-67
2022/07/13 03:08:16;;;;;;;;;;;22.60;52.80;;;;;;5063819;28;19928;-67
2022/07/13 03:10:42;;;;;;;;;;;22.60;52.80;;;;;;5066914;28;19920;-67
2022/07/13 03:13:10;;;;;;;;;;;22.60;52.70;;;;;;5071169;28;20370;-68
2022/07/13 03:15:37;;;;;;;;;;;22.60;52.70;;;;;;5045753;28;20358;-68
2022/07/13 03:18:04;;;;;;;;;;;22.60;52.60;;;;;;5050246;28;19976;-68
2022/07/13 03:20:32;;;;;;;;;;;22.60;52.60;;;;;;5067105;28;19924;-68
2022/07/13 03:22:58;;;;;;;;;;;22.60;52.60;;;;;;5070108;28;19927;-68
2022/07/13 03:25:25;;;;;;;;;;;22.60;52.60;;;;;;5069493;28;20373;-68
2022/07/13 03:27:52;;;;;;;;;;;22.60;52.50;;;;;;5052762;28;19921;-68
2022/07/13 03:30:18;;;;;;;;;;;22.60;52.50;;;;;;5053044;28;20215;-68
2022/07/13 03:32:45;;;;;;;;;;;22.60;52.50;;;;;;5051621;28;19974;-69
2022/07/13 03:35:12;;;;;;;;;;;22.60;52.50;;;;;;5060276;28;19975;-69
2022/07/13 03:37:40;;;;;;;;;;;22.60;52.40;;;;;;5070709;28;19951;-68
2022/07/13 03:40:08;;;;;;;;;;;22.60;52.40;;;;;;5052104;28;19921;-68
2022/07/13 03:42:35;;;;;;;;;;;22.60;52.40;;;;;;5052764;28;19964;-67
2022/07/13 03:45:02;;;;;;;;;;;22.60;52.30;;;;;;5053174;28;19996;-67
2022/07/13 03:47:28;;;;;;;;;;;22.60;52.30;;;;;;5064912;28;19927;-67
2022/07/13 03:49:56;;;;;;;;;;;22.60;52.30;;;;;;5064051;28;20412;-67
2022/07/13 03:52:23;;;;;;;;;;;22.60;52.30;;;;;;5052394;28;19920;-69
2022/07/13 03:54:51;;;;;;;;;;;22.60;52.30;;;;;;5070348;28;19976;-68
2022/07/13 03:57:18;;;;;;;;;;;22.60;52.30;;;;;;5073223;28;19921;-67
2022/07/13 03:59:44;;;;;;;;;;;22.60;52.30;;;;;;5051692;28;19951;-67
2022/07/13 04:02:11;;;;;;;;;;;22.60;52.20;;;;;;5066175;28;20431;-68
2022/07/13 04:04:38;;;;;;;;;;;22.60;52.20;;;;;;5073471;28;20023;-68
2022/07/13 04:07:05;;;;;;;;;;;22.60;52.20;;;;;;5071811;28;19932;-68
2022/07/13 04:09:31;;;;;;;;;;;22.60;52.20;;;;;;5073694;28;19978;-67
2022/07/13 04:12:00;;;;;;;;;;;22.60;52.20;;;;;;5052937;28;19921;-67
2022/07/13 04:14:26;;;;;;;;;;;22.60;52.20;;;;;;5060018;28;19920;-67
2022/07/13 04:16:53;;;;;;;;;;;22.60;52.20;;;;;;5062825;28;19983;-67
2022/07/13 04:19:20;;;;;;;;;;;22.60;52.20;;;;;;5054450;28;20250;-68
2022/07/13 04:21:47;;;;;;;;;;;22.60;52.20;;;;;;5056755;28;20419;-68
2022/07/13 04:26:58;;;;;;;;;;;22.60;52.20;;;;;;5061091;28;19917;-73
2022/07/13 04:29:26;;;;;;;;;;;22.60;52.20;;;;;;5036627;28;19925;-68
2022/07/13 04:34:37;;;;;;;;;;;22.60;52.20;;;;;;5055050;28;19921;-68
2022/07/13 04:37:03;;;;;;;;;;;22.60;52.20;;;;;;5055538;28;19978;-68
2022/07/13 04:39:31;;;;;;;;;;;22.60;52.20;;;;;;5051956;28;19921;-68
2022/07/13 04:41:58;;;;;;;;;;;22.60;52.20;;;;;;5060578;28;19979;-67
2022/07/13 04:44:26;;;;;;;;;;;22.60;52.80;;;;;;5058887;28;20400;-68
2022/07/13 04:46:53;;;;;;;;;;;22.60;52.30;;;;;;5055938;28;19920;-69
2022/07/13 04:49:20;;;;;;;;;;;22.60;52.20;;;;;;5056343;28;19928;-67
2022/07/13 04:51:47;;;;;;;;;;;22.60;52.30;;;;;;5038985;28;19971;-67
2022/07/13 04:54:15;;;;;;;;;;;22.60;52.30;;;;;;5072206;28;19924;-68
2022/07/13 04:56:42;;;;;;;;;;;22.60;52.30;;;;;;5073475;28;19928;-68
2022/07/13 05:01:54;;;;;;;;;;;22.60;52.30;;;;;;5060980;28;19916;-68
2022/07/13 05:04:21;;;;;;;;;;;22.60;52.30;;;;;;5054053;28;19978;-67
2022/07/13 05:06:48;;;;;;;;;;;22.60;52.30;;;;;;5068447;28;19938;-68
2022/07/13 05:09:15;;;;;;;;;;;22.60;52.30;;;;;;5073912;28;20319;-68
2022/07/13 05:11:41;;;;;;;;;;;22.60;52.30;;;;;;5055171;28;19967;-67
2022/07/13 05:14:08;;;;;;;;;;;22.60;52.30;;;;;;5074006;28;19970;-67
2022/07/13 05:16:35;;;;;;;;;;;22.60;52.30;;;;;;5065249;28;19924;-68
2022/07/13 05:19:03;;;;;;;;;;;22.60;52.30;;;;;;5073773;28;19920;-68
2022/07/13 05:21:30;;;;;;;;;;;22.60;52.30;;;;;;5045132;28;19921;-68
2022/07/13 05:23:56;;;;;;;;;;;22.60;52.30;;;;;;5044565;28;19966;-67
2022/07/13 05:26:23;;;;;;;;;;;22.70;52.40;;;;;;5071726;28;19981;-67
2022/07/13 05:28:50;;;;;;;;;;;22.60;52.30;;;;;;5054905;28;19990;-67
2022/07/13 05:34:02;;;;;;;;;;;22.70;52.40;;;;;;5071432;28;19916;-68
2022/07/13 05:36:29;;;;;;;;;;;22.60;52.30;;;;;;5057713;28;20389;-67
2022/07/13 05:38:56;;;;;;;;;;;22.60;52.90;;;;;;5042519;28;20031;-67
2022/07/13 05:41:23;;;;;;;;;;;22.70;52.50;;;;;;5071733;28;19927;-67
2022/07/13 05:43:49;;;;;;;;;;;22.60;52.40;;;;;;5041700;28;19927;-67
2022/07/13 05:46:16;;;;;;;;;;;22.60;52.40;;;;;;5058403;28;20285;-69
2022/07/13 05:48:43;;;;;;;;;;;22.70;52.50;;;;;;5060085;28;19978;-68
2022/07/13 05:51:11;;;;;;;;;;;22.60;52.40;;;;;;5050462;28;19932;-69
2022/07/13 05:53:38;;;;;;;;;;;22.70;52.50;;;;;;5053800;28;19932;-68
2022/07/13 05:56:05;;;;;;;;;;;22.70;52.50;;;;;;5054687;28;19952;-69
2022/07/13 05:58:32;;;;;;;;;;;22.70;52.50;;;;;;5055152;28;19920;-67
2022/07/13 06:00:58;;;;;;;;;;;22.70;52.50;;;;;;5042317;28;19928;-67
2022/07/13 06:03:25;;;;;;;;;;;22.70;52.50;;;;;;5066498;28;19924;-69
2022/07/13 06:05:52;;;;;;;;;;;22.70;52.50;;;;;;5054607;28;19927;-69
2022/07/13 06:08:20;;;;;;;;;;;22.70;52.50;;;;;;5064208;28;19927;-67
2022/07/13 06:10:47;;;;;;;;;;;22.70;52.50;;;;;;5069862;28;20415;-68
2022/07/13 06:13:14;;;;;;;;;;;22.70;52.50;;;;;;5062796;28;20032;-68
2022/07/13 06:15:40;;;;;;;;;;;22.70;52.50;;;;;;5046292;28;19960;-69
2022/07/13 06:18:07;;;;;;;;;;;22.70;52.50;;;;;;5041696;28;19921;-68
2022/07/13 06:20:34;;;;;;;;;;;22.70;52.50;;;;;;5050580;28;20019;-68
2022/07/13 06:23:10;;;;;;;;;;;22.70;52.50;;;;;;5045919;28;19987;-67
2022/07/13 06:25:39;;;;;;;;;;;22.70;52.50;;;;;;5055178;28;20441;-67
2022/07/13 06:28:06;;;;;;;;;;;22.70;52.50;;;;;;5048038;28;19930;-70
2022/07/13 06:30:32;;;;;;;;;;;22.70;52.50;;;;;;5063682;28;19921;-71
2022/07/13 06:32:59;;;;;;;;;;;22.70;52.50;;;;;;5063189;28;20378;-70
2022/07/13 06:35:26;;;;;;;;;;;22.70;52.50;;;;;;5044888;28;19928;-69
2022/07/13 06:37:53;;;;;;;;;;;22.70;52.60;;;;;;5052183;28;20003;-68
2022/07/13 06:40:19;;;;;;;;;;;22.70;52.50;;;;;;5050608;28;20427;-67
2022/07/13 06:42:47;;;;;;;;;;;22.70;52.60;;;;;;5072491;28;19932;-69
2022/07/13 06:45:14;;;;;;;;;;;22.70;52.60;;;;;;5041421;28;19960;-69
2022/07/13 06:47:42;;;;;;;;;;;22.70;52.60;;;;;;5051459;28;19921;-69
2022/07/13 06:50:09;;;;;;;;;;;22.70;52.60;;;;;;5042429;28;19921;-69
2022/07/13 06:52:37;;;;;;;;;;;22.70;52.60;;;;;;5067177;28;19973;-69
2022/07/13 06:55:04;;;;;;;;;;;22.70;52.60;;;;;;5065390;28;19928;-67
2022/07/13 06:57:32;;;;;;;;;;;22.70;52.70;;;;;;5063106;28;19928;-69
2022/07/13 07:00:00;;;;;;;;;;;22.70;52.70;;;;;;5051755;28;19970;-69
2022/07/13 07:02:26;;;;;;;;;;;22.70;52.60;;;;;;5052865;28;19974;-68
2022/07/13 07:04:54;;;;;;;;;;;22.70;52.60;;;;;;5057429;28;19933;-67
2022/07/13 07:07:21;;;;;;;;;;;22.70;52.60;;;;;;5070218;28;19920;-66
2022/07/13 07:09:48;;;;;;;;;;;22.70;52.60;;;;;;5055507;28;19929;-66
2022/07/13 07:12:17;;;;;;;;;;;22.70;52.60;;;;;;5048434;28;19920;-67
2022/07/13 07:14:44;;;;;;;;;;;22.70;52.60;;;;;;5043706;28;19921;-65
2022/07/13 07:17:13;;;;;;;;;;;22.70;52.60;;;;;;5067136;28;19974;-67
2022/07/13 07:19:39;;;;;;;;;;;22.70;52.60;;;;;;5047228;28;19931;-67
2022/07/13 07:22:25;;;;;;;;;;;22.70;52.60;;;;;;5067683;28;20273;-67
2022/07/13 07:24:52;;;;;;;;;;;22.80;52.70;;;;;;5067013;28;20015;-66
2022/07/13 07:27:19;;;;;;;;;;;22.80;52.70;;;;;;5046360;28;20315;-66
2022/07/13 07:29:46;;;;;;;;;;;22.80;52.70;;;;;;5065744;28;20429;-66
2022/07/13 07:32:14;;;;;;;;;;;22.80;52.70;;;;;;5047367;28;20053;-67
2022/07/13 07:34:40;;;;;;;;;;;22.80;52.70;;;;;;5042383;28;20459;-66
2022/07/13 07:39:51;;;;;;;;;;;22.80;52.70;;;;;;5058499;28;19921;-67
2022/07/13 07:42:24;;;;;;;;;;;22.80;52.70;;;;;;5042818;28;20373;-66
2022/07/13 07:44:51;;;;;;;;;;;22.80;52.60;;;;;;5040288;28;19924;-66
2022/07/13 07:47:37;;;;;;;;;;;22.80;52.70;;;;;;5056703;28;20304;-66
2022/07/13 07:50:22;;;;;;;;;;;22.80;52.60;;;;;;5050009;28;19932;-68
2022/07/13 07:52:52;;;;;;;;;;;22.90;52.70;;;;;;5052475;28;20015;-66
2022/07/13 07:55:19;;;;;;;;;;;22.80;52.60;;;;;;5041035;28;20368;-67
2022/07/13 07:57:46;;;;;;;;;;;22.90;52.70;;;;;;5041113;28;20019;-66
2022/07/13 08:00:13;;;;;;;;;;;22.90;52.70;;;;;;5048581;28;19932;-67
2022/07/13 08:02:40;;;;;;;;;;;22.90;52.70;;;;;;5055052;28;19921;-66
2022/07/13 08:05:08;;;;;;;;;;;22.90;52.70;;;;;;5062656;28;20218;-66
2022/07/13 08:07:34;;;;;;;;;;;22.90;52.70;;;;;;5042185;28;19931;-67
2022/07/13 08:10:15;;;;;;;;;;;22.90;52.70;;;;;;5063933;28;20370;-67
2022/07/13 08:12:41;;;;;;;;;;;22.90;52.70;;;;;;5045056;28;19924;-66
2022/07/13 08:15:08;;;;;;;;;;;22.90;52.70;;;;;;5065648;28;19928;-68
2022/07/13 08:17:36;;;;;;;;;;;22.90;52.70;;;;;;5047664;28;19965;-67
2022/07/13 08:20:21;;;;;;;;;;;22.90;52.70;;;;;;5062853;28;19978;-67
2022/07/13 08:22:48;;;;;;;;;;;22.90;52.70;;;;;;5037361;28;19937;-66
2022/07/13 08:25:16;;;;;;;;;;;22.90;52.70;;;;;;5067363;28;19954;-66
2022/07/13 08:27:43;;;;;;;;;;;22.90;52.70;;;;;;5059146;28;19920;-66
2022/07/13 08:30:11;;;;;;;;;;;22.90;52.70;;;;;;5067221;28;19954;-69
2022/07/13 08:32:37;;;;;;;;;;;22.90;52.60;;;;;;5051902;28;19921;-66
2022/07/13 08:40:35;;;;;;;;;;;23.00;52.70;;;;;;5043370;28;19924;-65
2022/07/13 08:43:01;;;;;;;;;;;23.00;52.70;;;;;;5046880;28;20381;-66
2022/07/13 08:45:28;;;;;;;;;;;23.00;52.70;;;;;;5067498;28;19970;-65
2022/07/13 08:47:55;;;;;;;;;;;23.00;52.70;;;;;;5069192;28;20107;-66
2022/07/13 08:50:22;;;;;;;;;;;23.00;52.70;;;;;;5052540;28;20436;-66
2022/07/13 08:52:48;;;;;;;;;;;23.00;52.70;;;;;;5053891;28;19924;-67
2022/07/13 08:55:15;;;;;;;;;;;23.00;52.70;;;;;;5052867;28;19928;-68
2022/07/13 08:57:43;;;;;;;;;;;23.00;52.70;;;;;;5051269;28;19943;-67
2022/07/13 09:00:11;;;;;;;;;;;23.00;52.70;;;;;;5053184;28;20023;-65
2022/07/13 09:02:38;;;;;;;;;;;23.00;52.70;;;;;;5050278;28;19920;-66
2022/07/13 09:05:05;;;;;;;;;;;23.00;52.70;;;;;;5069555;28;19920;-65
2022/07/13 09:07:32;;;;;;;;;;;23.00;52.70;;;;;;5057306;28;19932;-66
2022/07/13 09:09:59;;;;;;;;;;;23.00;52.70;;;;;;5056704;28;19970;-65
2022/07/13 09:12:29;;;;;;;;;;;23.00;52.70;;;;;;5038844;28;20330;-66
2022/07/13 09:14:57;;;;;;;;;;;23.00;52.70;;;;;;5060098;28;19936;-61
2022/07/13 09:17:28;;;;;;;;;;;23.00;52.70;;;;;;5046053;28;20031;-66
2022/07/13 09:19:55;;;;;;;;;;;23.10;52.80;;;;;;5056656;28;19956;-67
2022/07/13 09:22:22;;;;;;;;;;;23.10;52.80;;;;;;5055507;28;19946;-68
2022/07/13 09:24:50;;;;;;;;;;;23.10;52.80;;;;;;5056204;28;19924;-66
2022/07/13 09:27:17;;;;;;;;;;;23.10;52.80;;;;;;5070834;28;19924;-66
2022/07/13 09:29:44;;;;;;;;;;;23.10;52.90;;;;;;5052520;28;19974;-67
2022/07/13 09:32:12;;;;;;;;;;;23.10;52.80;;;;;;5069434;28;19995;-66
2022/07/13 09:34:46;;;;;;;;;;;23.10;52.80;;;;;;5068232;28;19991;-66
2022/07/13 09:37:14;;;;;;;;;;;23.10;52.90;;;;;;5048203;28;19956;-67
2022/07/13 09:39:55;;;;;;;;;;;23.10;52.90;;;;;;5044833;28;20040;-66
2022/07/13 09:42:25;;;;;;;;;;;23.10;52.90;;;;;;5055055;28;19948;-66
2022/07/13 09:47:42;;;;;;;;;;;23.10;52.90;;;;;;5061358;28;20483;-67
2022/07/13 09:50:09;;;;;;;;;;;23.10;52.90;;;;;;5048267;28;19996;-67
2022/07/13 09:52:35;;;;;;;;;;;23.10;52.90;;;;;;5036971;28;20027;-67
2022/07/13 09:55:22;;;;;;;;;;;23.10;52.90;;;;;;5054978;28;19928;-65
2022/07/13 09:57:49;;;;;;;;;;;23.10;52.90;;;;;;5043900;28;19936;-65
2022/07/13 10:00:18;;;;;;;;;;;23.20;52.90;;;;;;5060039;28;19920;-68
2022/07/13 10:02:50;;;;;;;;;;;23.20;52.90;;;;;;5050473;28;19920;-66
2022/07/13 10:05:17;;;;;;;;;;;23.20;52.90;;;;;;5025743;28;20381;-66
2022/07/13 10:07:44;;;;;;;;;;;23.20;52.90;;;;;;5050578;28;20328;-66
2022/07/13 10:10:11;;;;;;;;;;;23.20;52.90;;;;;;5059792;28;19928;-66
2022/07/13 10:12:38;;;;;;;;;;;23.20;52.90;;;;;;5044067;28;19990;-67
2022/07/13 10:15:06;;;;;;;;;;;23.20;52.90;;;;;;5068337;28;19920;-66
2022/07/13 10:17:33;;;;;;;;;;;23.20;52.90;;;;;;5050675;28;20018;-60
2022/07/13 10:20:03;;;;;;;;;;;23.20;52.90;;;;;;5065651;28;20134;-61
2022/07/13 10:22:31;;;;;;;;;;;23.20;52.90;;;;;;5066361;28;19954;-63
2022/07/13 10:24:58;;;;;;;;;;;23.20;52.90;;;;;;5049931;28;19974;-61
2022/07/13 10:30:10;;;;;;;;;;;23.20;52.90;;;;;;5038761;28;19921;-67
2022/07/13 10:32:37;;;;;;;;;;;23.20;52.90;;;;;;5067020;28;19924;-60
2022/07/13 10:35:07;;;;;;;;;;;23.30;53.10;;;;;;5063925;28;20011;-59
2022/07/13 10:37:59;;;;;;;;;;;23.20;53.00;;;;;;5045263;28;20344;-60
2022/07/13 10:40:26;;;;;;;;;;;23.20;53.00;;;;;;5061985;28;19933;-60
2022/07/13 10:43:11;;;;;;;;;;;23.30;53.20;;;;;;5057624;28;19920;-60
2022/07/13 10:45:40;;;;;;;;;;;23.30;53.20;;;;;;5062569;28;20309;-60
2022/07/13 10:48:07;;;;;;;;;;;23.30;53.20;;;;;;5037205;28;19968;-60
2022/07/13 10:50:40;;;;;;;;;;;23.30;53.20;;;;;;5037498;28;19924;-60
2022/07/13 10:53:07;;;;;;;;;;;23.30;53.20;;;;;;5061874;28;19926;-60
2022/07/13 10:55:34;;;;;;;;;;;23.30;53.20;;;;;;5064911;28;19928;-60
2022/07/13 10:58:01;;;;;;;;;;;23.30;53.20;;;;;;5034443;28;20043;-60
2022/07/13 11:00:42;;;;;;;;;;;23.30;53.30;;;;;;5048040;28;20059;-59
2022/07/13 11:03:23;;;;;;;;;;;23.30;53.30;;;;;;5043649;28;19924;-60
2022/07/13 11:06:04;;;;;;;;;;;23.30;53.30;;;;;;5042498;28;20316;-60
2022/07/13 11:08:31;;;;;;;;;;;23.30;53.30;;;;;;5064769;28;19994;-59
2022/07/13 11:11:08;;;;;;;;;;;23.30;53.30;;;;;;5045328;28;19927;-58
2022/07/13 11:13:36;;;;;;;;;;;23.40;53.40;;;;;;5056607;28;20007;-60
2022/07/13 11:16:02;;;;;;;;;;;23.40;53.40;;;;;;5050542;28;19927;-61
2022/07/13 11:18:31;;;;;;;;;;;23.30;53.40;;;;;;5045868;28;19921;-58
2022/07/13 11:20:58;;;;;;;;;;;23.40;53.50;;;;;;5057602;28;19929;-58
2022/07/13 11:26:13;;;;;;;;;;;23.40;53.50;;;;;;5068541;28;20015;-64
2022/07/13 11:28:42;;;;;;;;;;;23.40;53.60;;;;;;5043752;28;19994;-64
2022/07/13 11:31:10;;;;;;;;;;;23.40;53.60;;;;;;5045805;28;19924;-60
2022/07/13 11:33:37;;;;;;;;;;;23.40;53.60;;;;;;5055346;28;19988;-65
2022/07/13 11:36:04;;;;;;;;;;;23.40;53.70;;;;;;5057700;28;19929;-66
2022/07/13 11:38:36;;;;;;;;;;;23.40;53.70;;;;;;5070937;28;19920;-64
2022/07/13 11:41:03;;;;;;;;;;;23.40;53.80;;;;;;5070519;28;19939;-65
2022/07/13 11:43:30;;;;;;;;;;;23.40;53.80;;;;;;5049069;28;20445;-67
2022/07/13 11:45:57;;;;;;;;;;;23.40;53.80;;;;;;5051715;28;19927;-65
2022/07/13 11:48:24;;;;;;;;;;;23.50;53.90;;;;;;5050070;28;20381;-66
2022/07/13 11:50:52;;;;;;;;;;;23.50;54.00;;;;;;5042100;28;19925;-65
2022/07/13 11:53:26;;;;;;;;;;;23.50;54.00;;;;;;5045750;28;19955;-65
2022/07/13 11:55:56;;;;;;;;;;;23.50;54.10;;;;;;5062512;28;19956;-65
2022/07/13 11:58:28;;;;;;;;;;;23.50;54.10;;;;;;5062659;28;20266;-63
2022/07/13 12:00:54;;;;;;;;;;;23.50;54.10;;;;;;5042748;28;19931;-65
2022/07/13 12:03:25;;;;;;;;;;;23.50;54.10;;;;;;5049161;28;20015;-64
2022/07/13 12:05:52;;;;;;;;;;;23.50;54.20;;;;;;5043575;28;20423;-65
2022/07/13 12:08:19;;;;;;;;;;;23.60;54.20;;;;;;5043700;28;19977;-65
2022/07/13 12:10:46;;;;;;;;;;;23.60;54.30;;;;;;5036198;28;19974;-66
2022/07/13 12:13:14;;;;;;;;;;;23.60;54.30;;;;;;5066234;28;19921;-59
2022/07/13 12:15:41;;;;;;;;;;;23.60;54.30;;;;;;5062569;28;19924;-66
2022/07/13 12:18:10;;;;;;;;;;;23.60;54.30;;;;;;5059465;28;20273;-66
2022/07/13 12:20:37;;;;;;;;;;;23.60;54.30;;;;;;5055723;28;19928;-65
2022/07/13 12:23:05;;;;;;;;;;;23.60;54.30;;;;;;5062714;28;20304;-65
2022/07/13 12:25:32;;;;;;;;;;;23.60;54.30;;;;;;5043177;28;20023;-65
2022/07/13 12:28:00;;;;;;;;;;;23.60;54.30;;;;;;5052433;28;19925;-65
2022/07/13 12:30:28;;;;;;;;;;;23.60;54.40;;;;;;5066084;28;19936;-65
2022/07/13 12:32:56;;;;;;;;;;;23.60;54.40;;;;;;5066884;28;19932;-65
2022/07/13 12:35:22;;;;;;;;;;;23.60;54.50;;;;;;5048416;28;19925;-65
2022/07/13 12:37:51;;;;;;;;;;;23.60;54.50;;;;;;5067590;28;20268;-66
2022/07/13 12:40:33;;;;;;;;;;;23.60;54.50;;;;;;5049573;28;19924;-66
2022/07/13 12:43:00;;;;;;;;;;;23.60;54.50;;;;;;5069199;28;19920;-66
2022/07/13 12:45:31;;;;;;;;;;;23.60;54.60;;;;;;5043096;28;19973;-65
2022/07/13 12:47:58;;;;;;;;;;;23.70;54.70;;;;;;5050407;28;19978;-65
2022/07/13 12:50:28;;;;;;;;;;;23.70;54.70;;;;;;5063544;28;19932;-65
2022/07/13 12:52:59;;;;;;;;;;;23.70;54.70;;;;;;5048970;28;19929;-65
2022/07/13 12:55:26;;;;;;;;;;;23.70;54.70;;;;;;5062658;28;19925;-67
2022/07/13 12:57:53;;;;;;;;;;;23.70;54.70;;;;;;5044789;28;20033;-66
2022/07/13 13:00:22;;;;;;;;;;;23.70;54.80;;;;;;5064850;28;19936;-65
2022/07/13 13:02:53;;;;;;;;;;;23.70;54.70;;;;;;5037793;28;19920;-65
2022/07/13 13:05:19;;;;;;;;;;;23.70;54.70;;;;;;5058148;28;20355;-66
2022/07/13 13:07:46;;;;;;;;;;;23.70;54.70;;;;;;5040452;28;19921;-66
2022/07/13 13:10:13;;;;;;;;;;;23.70;54.70;;;;;;5043367;28;20632;-65
2022/07/13 13:12:40;;;;;;;;;;;23.70;54.70;;;;;;5060053;28;19936;-67
2022/07/13 13:15:07;;;;;;;;;;;23.70;54.70;;;;;;5048481;28;20320;-65
2022/07/13 13:17:34;;;;;;;;;;;23.70;54.70;;;;;;5059206;28;19920;-65
2022/07/13 13:20:02;;;;;;;;;;;23.70;54.70;;;;;;5048739;28;19924;-65
2022/07/13 13:22:29;;;;;;;;;;;23.70;54.70;;;;;;5040273;28;19944;-66
2022/07/13 13:24:56;;;;;;;;;;;23.80;54.70;;;;;;5058618;28;19925;-65
2022/07/13 13:27:23;;;;;;;;;;;23.80;54.70;;;;;;5059467;28;19974;-65
2022/07/13 13:32:34;;;;;;;;;;;23.80;54.70;;;;;;5054760;28;19940;-65
2022/07/13 13:35:01;;;;;;;;;;;23.80;54.70;;;;;;5066626;28;19929;-65
2022/07/13 13:37:29;;;;;;;;;;;23.80;54.70;;;;;;5070061;28;20322;-66
2022/07/13 13:39:56;;;;;;;;;;;23.80;54.70;;;;;;5040537;28;19943;-65
2022/07/13 13:42:23;;;;;;;;;;;23.80;54.70;;;;;;5063839;28;19932;-65
2022/07/13 13:44:50;;;;;;;;;;;23.80;54.70;;;;;;5065169;28;19925;-65
2022/07/13 13:47:16;;;;;;;;;;;23.80;54.70;;;;;;5048339;28;19927;-65
2022/07/13 13:49:43;;;;;;;;;;;23.80;54.60;;;;;;5042108;28;19920;-66
2022/07/13 13:52:10;;;;;;;;;;;23.80;54.60;;;;;;5041032;28;20346;-66
2022/07/13 13:54:38;;;;;;;;;;;23.80;54.60;;;;;;5040503;28;19924;-65
2022/07/13 13:57:05;;;;;;;;;;;23.80;54.60;;;;;;5053734;28;20259;-65
2022/07/13 13:59:32;;;;;;;;;;;23.80;54.60;;;;;;5042112;28;19933;-65
2022/07/13 14:01:59;;;;;;;;;;;23.80;54.60;;;;;;5056708;28;19956;-65
2022/07/13 14:04:26;;;;;;;;;;;23.80;54.60;;;;;;5055697;28;20019;-66
2022/07/13 14:06:53;;;;;;;;;;;23.80;54.50;;;;;;5058878;28;20362;-65
2022/07/13 14:09:19;;;;;;;;;;;23.80;54.60;;;;;;5047671;28;19920;-66
2022/07/13 14:11:47;;;;;;;;;;;23.80;54.50;;;;;;5051376;28;20274;-65
2022/07/13 14:14:14;;;;;;;;;;;23.80;54.60;;;;;;5048884;28;20457;-65
2022/07/13 14:16:41;;;;;;;;;;;23.80;54.60;;;;;;5064216;28;19924;-65
2022/07/13 14:19:09;;;;;;;;;;;23.80;54.60;;;;;;5048211;28;19985;-67
2022/07/13 14:21:35;;;;;;;;;;;23.80;54.60;;;;;;5067511;28;20277;-66
2022/07/13 14:24:02;;;;;;;;;;;23.80;54.50;;;;;;5042388;28;20332;-68
2022/07/13 14:26:29;;;;;;;;;;;23.90;54.50;;;;;;5057347;28;19925;-66
2022/07/13 14:28:57;;;;;;;;;;;23.90;54.40;;;;;;5047103;28;19978;-67
2022/07/13 14:31:24;;;;;;;;;;;23.90;54.30;;;;;;5038114;28;20034;-68
2022/07/13 14:33:51;;;;;;;;;;;23.90;54.20;;;;;;5041244;28;19940;-66
2022/07/13 14:36:23;;;;;;;;;;;23.90;54.10;;;;;;5045584;28;19932;-67
2022/07/13 14:38:49;;;;;;;;;;;23.90;53.90;;;;;;5058796;28;19959;-65
2022/07/13 14:41:16;;;;;;;;;;;23.90;53.70;;;;;;5059737;28;19920;-64
2022/07/13 14:43:43;;;;;;;;;;;24.00;53.60;;;;;;5059589;28;19929;-65
2022/07/13 14:46:11;;;;;;;;;;;24.00;53.50;;;;;;5046673;28;19921;-65
2022/07/13 14:48:38;;;;;;;;;;;24.00;53.20;;;;;;5061365;28;20024;-66
2022/07/13 14:51:05;;;;;;;;;;;24.00;52.90;;;;;;5056663;28;20065;-66
2022/07/13 14:53:32;;;;;;;;;;;24.00;52.50;;;;;;5064376;28;19997;-66
2022/07/13 14:55:58;;;;;;;;;;;24.00;52.30;;;;;;5046679;28;19928;-66
2022/07/13 14:58:25;;;;;;;;;;;24.00;52.20;;;;;;5056471;28;20288;-65
2022/07/13 15:00:52;;;;;;;;;;;24.00;52.20;;;;;;5044572;28;19921;-67